createdAt,value
2022-08-09T00:00:11.303Z,99649.59
2022-08-09T00:02:49.111Z,99655.53
2022-08-09T00:06:17.558Z,99647.28
2022-08-09T00:08:10.254Z,99645.22
2022-08-09T00:10:39.174Z,99648.16
2022-08-09T00:13:16.971Z,99640.59
2022-08-09T00:15:58.672Z,99646.00
2022-08-09T00:18:35.052Z,99644.75
2022-08-09T00:21:07.974Z,99643.13
2022-08-09T00:23:56.447Z,99643.91
2022-08-09T00:26:29.837Z,99635.16
2022-08-09T00:29:01.674Z,99635.38
2022-08-09T00:31:57.425Z,99638.66
2022-08-09T00:34:19.457Z,99638.59
2022-08-09T00:36:49.282Z,99632.59
2022-08-09T00:40:09.691Z,99637.75
2022-08-09T00:44:14.659Z,99629.63
2022-08-09T00:44:51.978Z,99641.38
2022-08-09T00:47:21.649Z,99647.31
2022-08-09T00:49:54.469Z,99635.38
2022-08-09T00:52:22.825Z,99642.44
2022-08-09T00:55:00.256Z,99639.47
2022-08-09T00:57:34.914Z,99643.72
2022-08-09T01:00:21.092Z,99636.91
2022-08-09T01:03:08.737Z,99642.44
2022-08-09T01:05:54.517Z,99638.19
2022-08-09T01:08:29.113Z,99636.03
2022-08-09T01:11:23.702Z,99635.97
2022-08-09T01:14:18.493Z,99631.97
2022-08-09T01:16:49.297Z,99639.03
2022-08-09T01:19:57.134Z,99645.75
2022-08-09T01:23:00.201Z,99642.88
2022-08-09T01:26:04.230Z,99651.19
2022-08-09T01:28:33.454Z,99640.09
2022-08-09T01:31:06.138Z,99645.00
2022-08-09T01:33:38.546Z,99643.81
2022-08-09T01:36:11.749Z,99640.09
2022-08-09T01:38:47.417Z,99634.44
2022-08-09T01:41:26.921Z,99637.97
2022-08-09T01:43:58.577Z,99632.31
2022-08-09T01:46:31.670Z,99631.78
2022-08-09T01:49:10.547Z,99634.78
2022-08-09T01:51:53.449Z,99632.22
2022-08-09T01:54:39.533Z,99634.88
2022-08-09T01:57:20.337Z,99634.88
2022-08-09T01:59:52.665Z,99639.25
2022-08-09T02:02:30.962Z,99645.63
2022-08-09T02:05:05.632Z,99643.19
2022-08-09T02:08:40.465Z,99640.84
2022-08-09T02:10:50.689Z,99643.69
2022-08-09T02:13:26.056Z,99645.84
2022-08-09T02:16:05.881Z,99642.22
2022-08-09T02:18:38.211Z,99642.75
2022-08-09T02:21:17.067Z,99649.03
2022-08-09T02:23:54.517Z,99645.44
2022-08-09T02:26:25.291Z,99656.72
2022-08-09T02:29:01.617Z,99651.25
2022-08-09T02:31:34.263Z,99647.19
2022-08-09T02:34:13.702Z,99643.56
2022-08-09T02:37:02.830Z,99654.41
2022-08-09T02:39:41.968Z,99647.91
2022-08-09T02:42:19.093Z,99639.38
2022-08-09T02:45:01.945Z,99646.31
2022-08-09T02:47:33.747Z,99643.78
2022-08-09T02:50:28.745Z,99638.25
2022-08-09T02:53:01.761Z,99639.66
2022-08-09T02:55:46.126Z,99636.50
2022-08-09T02:58:36.132Z,99631.63
2022-08-09T03:01:08.277Z,99635.56
2022-08-09T03:04:17.449Z,99631.31
2022-08-09T03:06:27.451Z,99627.44
2022-08-09T03:08:55.496Z,99635.13
2022-08-09T03:11:30.175Z,99632.63
2022-08-09T03:14:12.962Z,99631.50
2022-08-09T03:16:44.825Z,99638.63
2022-08-09T03:19:14.057Z,99635.16
2022-08-09T03:22:00.681Z,99632.94
2022-08-09T03:24:42.802Z,99637.00
2022-08-09T03:27:21.404Z,99641.25
2022-08-09T03:30:01.020Z,99649.09
2022-08-09T03:32:36.883Z,99643.53
2022-08-09T03:35:15.058Z,99643.22
2022-08-09T03:37:56.205Z,99646.56
2022-08-09T03:40:25.239Z,99649.88
2022-08-09T03:42:57.951Z,99651.38
2022-08-09T03:46:05.283Z,99646.25
2022-08-09T03:48:11.570Z,99651.44
2022-08-09T03:50:46.511Z,99647.13
2022-08-09T03:53:16.613Z,99657.22
2022-08-09T03:55:48.315Z,99652.31
2022-08-09T03:58:20.961Z,99650.66
2022-08-09T04:00:49.547Z,99656.22
2022-08-09T04:03:24.913Z,99659.97
2022-08-09T04:06:04.878Z,99654.44
2022-08-09T04:08:33.154Z,99650.25
2022-08-09T04:11:01.617Z,99659.41
2022-08-09T04:13:44.838Z,99653.50
2022-08-09T04:16:20.632Z,99667.78
2022-08-09T04:18:54.737Z,99666.59
2022-08-09T04:21:22.139Z,99671.28
2022-08-09T04:23:53.733Z,99670.66
2022-08-09T04:26:23.357Z,99667.44
2022-08-09T04:28:50.487Z,99670.03
2022-08-09T04:31:17.179Z,99667.31
2022-08-09T04:33:47.442Z,99675.44
2022-08-09T04:36:23.376Z,99678.78
2022-08-09T04:38:50.782Z,99678.78
2022-08-09T04:41:19.219Z,99688.53
2022-08-09T04:44:05.856Z,99688.03
2022-08-09T04:46:57.345Z,99688.28
2022-08-09T04:49:40.206Z,99689.41
2022-08-09T04:52:10.694Z,99693.53
2022-08-09T04:54:37.999Z,99699.06
2022-08-09T04:57:04.781Z,99700.06
2022-08-09T04:59:36.049Z,99698.81
2022-08-09T05:02:03.166Z,99705.81
2022-08-09T05:04:30.804Z,99711.06
2022-08-09T05:06:58.725Z,99718.53
2022-08-09T05:09:42.183Z,99711.53
2022-08-09T05:12:12.567Z,99715.47
2022-08-09T05:14:41.247Z,99720.66
2022-08-09T05:17:15.310Z,99718.28
2022-08-09T05:19:56.882Z,99719.03
2022-08-09T05:22:36.111Z,99720.06
2022-08-09T05:25:11.567Z,99723.25
2022-08-09T05:27:45.423Z,99717.00
2022-08-09T05:30:17.529Z,99721.97
2022-08-09T05:32:51.229Z,99724.59
2022-08-09T05:35:21.781Z,99731.66
2022-08-09T05:37:50.880Z,99731.41
2022-08-09T05:40:18.239Z,99728.88
2022-08-09T05:42:46.069Z,99732.06
2022-08-09T05:45:14.319Z,99739.59
2022-08-09T05:47:45.594Z,99741.75
2022-08-09T05:50:44.074Z,99739.09
2022-08-09T05:53:21.822Z,99739.78
2022-08-09T05:55:58.726Z,99747.06
2022-08-09T05:58:25.442Z,99747.25
2022-08-09T06:00:53.611Z,99750.66
2022-08-09T06:03:20.489Z,99750.19
2022-08-09T06:05:57.299Z,99757.69
2022-08-09T06:08:31.828Z,99757.31
2022-08-09T06:10:59.385Z,99762.97
2022-08-09T06:13:28.584Z,99758.09
2022-08-09T06:16:04.926Z,99754.97
2022-08-09T06:18:32.911Z,99753.16
2022-08-09T06:21:01.595Z,99753.38
2022-08-09T06:23:54.988Z,99762.75
2022-08-09T06:26:22.355Z,99774.13
2022-08-09T06:29:00.711Z,99770.69
2022-08-09T06:31:39.341Z,99768.75
2022-08-09T06:34:11.272Z,99768.81
2022-08-09T06:36:42.880Z,99768.69
2022-08-09T06:39:11.706Z,99769.44
2022-08-09T06:42:08.245Z,99778.88
2022-08-09T06:44:26.549Z,99772.88
2022-08-09T06:46:55.484Z,99778.06
2022-08-09T06:49:44.953Z,99779.72
2022-08-09T06:52:12.135Z,99780.63
2022-08-09T06:54:42.609Z,99788.41
2022-08-09T06:57:11.848Z,99789.25
2022-08-09T07:00:50.759Z,99788.25
2022-08-09T07:02:29.312Z,99783.16
2022-08-09T07:05:00.290Z,99791.69
2022-08-09T07:07:58.758Z,99788.22
2022-08-09T07:10:22.437Z,99789.81
2022-08-09T07:12:57.059Z,99794.97
2022-08-09T07:16:35.381Z,99785.31
2022-08-09T07:18:11.490Z,99791.03
2022-08-09T07:20:43.421Z,99793.59
2022-08-09T07:23:18.584Z,99792.75
2022-08-09T07:25:52.258Z,99786.06
2022-08-09T07:28:26.397Z,99787.69
2022-08-09T07:30:55.546Z,99798.78
2022-08-09T07:33:22.437Z,99792.56
2022-08-09T07:35:54.065Z,99789.69
2022-08-09T07:38:21.596Z,99789.78
2022-08-09T07:41:11.009Z,99791.13
2022-08-09T07:43:49.924Z,99793.69
2022-08-09T07:46:22.819Z,99798.94
2022-08-09T07:48:59.282Z,99802.66
2022-08-09T07:52:05.844Z,99798.84
2022-08-09T07:54:14.947Z,99780.66
2022-08-09T07:56:49.811Z,99792.38
2022-08-09T07:59:34.503Z,99794.88
2022-08-09T08:02:07.501Z,99788.69
2022-08-09T08:04:36.448Z,99790.06
2022-08-09T08:07:09.510Z,99792.31
2022-08-09T08:10:04.550Z,99795.69
2022-08-09T08:12:43.349Z,99795.38
2022-08-09T08:15:24.229Z,99786.72
2022-08-09T08:17:55.511Z,99785.75
2022-08-09T08:20:30.518Z,99796.75
2022-08-09T08:23:06.946Z,99784.78
2022-08-09T08:25:50.322Z,99791.34
2022-08-09T08:28:33.239Z,99790.31
2022-08-09T08:31:14.025Z,99801.91
2022-08-09T08:33:53.161Z,99793.72
2022-08-09T08:36:28.616Z,99792.00
2022-08-09T08:38:57.492Z,99797.09
2022-08-09T08:41:24.520Z,99785.16
2022-08-09T08:44:09.389Z,99784.06
2022-08-09T08:47:02.960Z,99779.44
2022-08-09T08:49:38.669Z,99780.13
2022-08-09T08:52:57.795Z,99781.19
2022-08-09T08:55:06.026Z,99782.97
2022-08-09T08:57:35.285Z,99783.72
2022-08-09T09:00:07.943Z,99786.47
2022-08-09T09:02:40.959Z,99784.13
2022-08-09T09:05:12.396Z,99781.16
2022-08-09T09:07:44.700Z,99786.06
2022-08-09T09:10:12.204Z,99783.38
2022-08-09T09:12:41.543Z,99787.00
2022-08-09T09:15:29.009Z,99789.56
2022-08-09T09:17:55.740Z,99791.22
2022-08-09T09:20:22.387Z,99788.16
2022-08-09T09:23:02.016Z,99784.66
2022-08-09T09:26:04.438Z,99786.59
2022-08-09T09:28:39.000Z,99779.22
2022-08-09T09:32:06.305Z,99776.13
2022-08-09T09:34:15.163Z,99783.25
2022-08-09T09:36:53.156Z,99785.69
2022-08-09T09:39:25.589Z,99784.06
2022-08-09T09:42:24.683Z,99790.53
2022-08-09T09:45:04.369Z,99794.41
2022-08-09T09:47:32.943Z,99783.47
2022-08-09T09:50:16.829Z,99782.66
2022-08-09T09:52:56.326Z,99779.34
2022-08-09T09:55:32.697Z,99770.91
2022-08-09T09:58:16.939Z,99775.00
2022-08-09T10:00:58.450Z,99766.47
2022-08-09T10:03:57.238Z,99770.84
2022-08-09T10:06:42.654Z,99774.53
2022-08-09T10:09:22.073Z,99766.84
2022-08-09T10:12:14.377Z,99783.66
2022-08-09T10:14:49.353Z,99778.81
2022-08-09T10:17:39.264Z,99766.47
2022-08-09T10:20:26.938Z,99770.16
2022-08-09T10:23:13.615Z,99772.16
2022-08-09T10:26:07.956Z,99775.06
2022-08-09T10:28:34.164Z,99760.59
2022-08-09T10:34:09.658Z,99776.97
2022-08-09T10:36:37.850Z,99778.00
2022-08-09T10:39:05.990Z,99781.34
2022-08-09T10:41:43.035Z,99762.47
2022-08-09T10:44:10.589Z,99762.59
2022-08-09T10:48:20.392Z,99764.28
2022-08-09T10:50:31.429Z,99758.88
2022-08-09T10:53:20.040Z,99756.53
2022-08-09T10:55:58.402Z,99758.66
2022-08-09T10:58:33.399Z,99760.97
2022-08-09T11:03:03.192Z,99757.84
2022-08-09T11:04:30.943Z,99753.28
2022-08-09T11:06:59.714Z,99765.19
2022-08-09T11:09:47.647Z,99764.03
2022-08-09T11:12:17.899Z,99754.72
2022-08-09T11:14:56.139Z,99744.25
2022-08-09T11:17:26.739Z,99752.53
2022-08-09T11:20:20.393Z,99741.16
2022-08-09T11:22:56.873Z,99751.66
2022-08-09T11:25:45.041Z,99754.16
2022-08-09T11:28:56.745Z,99746.06
2022-08-09T11:31:49.392Z,99747.16
2022-08-09T11:34:48.853Z,99747.66
2022-08-09T11:37:27.950Z,99742.00
2022-08-09T11:40:05.113Z,99751.78
2022-08-09T11:42:51.415Z,99748.19
2022-08-09T11:45:43.069Z,99742.28
2022-08-09T11:48:27.038Z,99742.88
2022-08-09T11:51:19.695Z,99734.81
2022-08-09T11:53:59.451Z,99736.34
2022-08-09T11:56:42.530Z,99741.75
2022-08-09T11:59:30.254Z,99739.38
2022-08-09T12:02:34.354Z,99738.94
2022-08-09T12:04:57.986Z,99735.16
2022-08-09T12:07:41.323Z,99726.44
2022-08-09T12:10:14.377Z,99725.47
2022-08-09T12:12:58.467Z,99719.66
2022-08-09T12:15:48.783Z,99723.31
2022-08-09T12:18:25.885Z,99715.31
2022-08-09T12:20:57.163Z,99718.13
2022-08-09T12:23:56.254Z,99719.50
2022-08-09T12:26:25.333Z,99708.78
2022-08-09T12:28:59.124Z,99708.41
2022-08-09T12:31:58.665Z,99709.09
2022-08-09T12:34:30.996Z,99701.16
2022-08-09T12:37:21.942Z,99703.16
2022-08-09T12:40:10.825Z,99701.78
2022-08-09T12:42:44.347Z,99701.66
2022-08-09T12:45:34.956Z,99699.00
2022-08-09T12:47:58.853Z,99691.75
2022-08-09T12:50:25.829Z,99700.16
2022-08-09T12:53:09.019Z,99694.50
2022-08-09T12:56:15.157Z,99687.19
2022-08-09T12:58:27.811Z,99681.31
2022-08-09T13:00:57.597Z,99682.38
2022-08-09T13:03:52.784Z,99691.16
2022-08-09T13:06:34.539Z,99677.28
2022-08-09T13:09:14.527Z,99674.53
2022-08-09T13:11:45.303Z,99676.72
2022-08-09T13:14:42.090Z,99675.56
2022-08-09T13:17:43.989Z,99674.56
2022-08-09T13:20:13.204Z,99676.31
2022-08-09T13:23:05.706Z,99672.63
2022-08-09T13:25:52.940Z,99671.84
2022-08-09T13:28:33.817Z,99667.88
2022-08-09T13:32:16.567Z,99659.50
2022-08-09T13:33:58.539Z,99652.63
2022-08-09T13:36:42.586Z,99655.72
2022-08-09T13:41:17.298Z,99657.91
2022-08-09T13:42:01.858Z,99659.81
2022-08-09T13:44:29.461Z,99664.00
2022-08-09T13:47:27.063Z,99657.94
2022-08-09T13:49:57.696Z,99656.31
2022-08-09T13:52:29.378Z,99651.97
2022-08-09T13:55:00.552Z,99653.75
2022-08-09T13:57:43.464Z,99652.94
2022-08-09T14:00:15.843Z,99647.72
2022-08-09T14:03:03.603Z,99644.84
2022-08-09T14:05:59.585Z,99643.94
2022-08-09T14:08:27.127Z,99632.50
2022-08-09T14:10:55.707Z,99645.69
2022-08-09T14:13:27.940Z,99646.50
2022-08-09T14:16:16.401Z,99639.25
2022-08-09T14:18:50.308Z,99647.25
2022-08-09T14:21:20.918Z,99644.38
2022-08-09T14:23:54.787Z,99640.25
2022-08-09T14:26:32.937Z,99645.94
2022-08-09T14:30:18.624Z,99643.78
2022-08-09T14:32:11.315Z,99637.25
2022-08-09T14:34:40.864Z,99627.28
2022-08-09T14:37:08.626Z,99639.09
2022-08-09T14:39:47.212Z,99641.03
2022-08-09T14:42:30.724Z,99624.88
2022-08-09T14:46:39.940Z,99628.66
2022-08-09T14:47:57.211Z,99630.91
2022-08-09T14:50:29.552Z,99630.84
2022-08-09T14:53:02.952Z,99637.13
2022-08-09T14:55:32.514Z,99632.34
2022-08-09T14:58:04.676Z,99635.28
2022-08-09T15:00:36.093Z,99629.66
2022-08-09T15:03:06.537Z,99636.97
2022-08-09T15:05:34.247Z,99627.13
2022-08-09T15:08:05.206Z,99633.03
2022-08-09T15:10:34.756Z,99633.63
2022-08-09T15:13:04.568Z,99626.22
2022-08-09T15:15:34.488Z,99627.75
2022-08-09T15:18:07.457Z,99629.41
2022-08-09T15:21:54.685Z,99633.41
2022-08-09T15:24:00.651Z,99619.13
2022-08-09T15:26:19.298Z,99627.97
2022-08-09T15:28:57.359Z,99628.69
2022-08-09T15:31:41.979Z,99625.13
2022-08-09T15:34:31.139Z,99623.56
2022-08-09T15:36:58.273Z,99622.25
2022-08-09T15:39:34.600Z,99616.31
2022-08-09T15:42:12.835Z,99611.09
2022-08-09T15:44:41.742Z,99615.94
2022-08-09T15:47:14.343Z,99613.31
2022-08-09T15:50:04.209Z,99611.72
2022-08-09T15:52:31.955Z,99602.09
2022-08-09T15:54:58.782Z,99617.31
2022-08-09T15:57:35.854Z,99606.09
2022-08-09T16:00:25.906Z,99616.78
2022-08-09T16:02:56.889Z,99608.72
2022-08-09T16:05:47.781Z,99603.66
2022-08-09T16:08:30.749Z,99598.00
2022-08-09T16:11:02.784Z,99595.19
2022-08-09T16:14:02.754Z,99597.38
2022-08-09T16:16:19.053Z,99601.03
2022-08-09T16:18:47.592Z,99599.50
2022-08-09T16:21:17.835Z,99601.56
2022-08-09T16:23:55.590Z,99600.94
2022-08-09T16:26:35.560Z,99603.97
2022-08-09T16:29:11.406Z,99600.28
2022-08-09T16:32:19.577Z,99605.41
2022-08-09T16:34:55.445Z,99605.34
2022-08-09T16:37:20.056Z,99601.44
2022-08-09T16:40:08.738Z,99608.03
2022-08-09T16:42:37.930Z,99605.09
2022-08-09T16:45:06.332Z,99602.22
2022-08-09T16:48:38.159Z,99607.91
2022-08-09T16:50:31.321Z,99604.88
2022-08-09T16:53:00.214Z,99607.16
2022-08-09T16:55:27.384Z,99610.69
2022-08-09T16:58:13.726Z,99601.97
2022-08-09T17:00:43.807Z,99611.94
2022-08-09T17:03:21.787Z,99605.03
2022-08-09T17:06:07.733Z,99603.34
2022-08-09T17:09:01.697Z,99610.69
2022-08-09T17:11:40.213Z,99603.84
2022-08-09T17:14:15.984Z,99608.34
2022-08-09T17:17:01.851Z,99607.19
2022-08-09T17:20:05.943Z,99605.63
2022-08-09T17:22:24.687Z,99610.63
2022-08-09T17:25:03.466Z,99606.75
2022-08-09T17:27:38.206Z,99612.59
2022-08-09T17:30:14.119Z,99621.28
2022-08-09T17:32:46.294Z,99609.81
2022-08-09T17:35:14.457Z,99619.75
2022-08-09T17:38:02.738Z,99625.63
2022-08-09T17:40:32.710Z,99627.03
2022-08-09T17:43:32.850Z,99619.88
2022-08-09T17:46:03.142Z,99634.22
2022-08-09T17:48:40.282Z,99626.94
2022-08-09T17:51:17.252Z,99626.50
2022-08-09T17:53:51.572Z,99629.16
2022-08-09T17:56:21.261Z,99624.53
2022-08-09T17:58:48.187Z,99629.03
2022-08-09T18:01:22.167Z,99632.16
2022-08-09T18:03:51.007Z,99636.03
2022-08-09T18:06:31.286Z,99638.09
2022-08-09T18:09:05.507Z,99635.78
2022-08-09T18:11:46.810Z,99638.69
2022-08-09T18:14:22.755Z,99639.50
2022-08-09T18:16:50.759Z,99645.16
2022-08-09T18:20:56.441Z,99642.97
2022-08-09T18:22:13.114Z,99649.78
2022-08-09T18:24:49.989Z,99652.16
2022-08-09T18:27:59.773Z,99649.06
2022-08-09T18:30:42.346Z,99651.91
2022-08-09T18:32:54.315Z,99651.03
2022-08-09T18:35:56.323Z,99652.97
2022-08-09T18:38:09.940Z,99650.25
2022-08-09T18:40:38.844Z,99649.34
2022-08-09T18:43:05.487Z,99654.53
2022-08-09T18:46:50.728Z,99645.78
2022-08-09T18:48:18.983Z,99655.06
2022-08-09T18:50:47.706Z,99657.84
2022-08-09T18:53:16.358Z,99658.38
2022-08-09T18:55:56.021Z,99676.09
2022-08-09T18:58:32.911Z,99670.72
2022-08-09T19:01:00.299Z,99675.06
2022-08-09T19:03:27.322Z,99676.09
2022-08-09T19:06:03.344Z,99682.31
2022-08-09T19:08:31.043Z,99673.75
2022-08-09T19:10:57.755Z,99680.81
2022-08-09T19:13:38.532Z,99680.50
2022-08-09T19:16:13.006Z,99682.66
2022-08-09T19:18:44.244Z,99691.19
2022-08-09T19:21:12.399Z,99685.94
2022-08-09T19:24:37.175Z,99680.31
2022-08-09T19:26:31.433Z,99687.13
2022-08-09T19:29:02.487Z,99695.81
2022-08-09T19:31:44.078Z,99691.72
2022-08-09T19:34:21.887Z,99701.03
2022-08-09T19:36:57.320Z,99701.19
2022-08-09T19:39:43.963Z,99705.22
2022-08-09T19:42:14.453Z,99704.59
2022-08-09T19:44:42.703Z,99707.88
2022-08-09T19:47:09.449Z,99712.63
2022-08-09T19:50:05.226Z,99715.66
2022-08-09T19:52:26.758Z,99718.56
2022-08-09T19:54:53.547Z,99715.09
2022-08-09T19:57:25.522Z,99722.38
2022-08-09T20:00:01.880Z,99719.88
2022-08-09T20:04:10.891Z,99723.38
2022-08-09T20:05:23.511Z,99730.22
2022-08-09T20:07:59.044Z,99731.75
2022-08-09T20:10:34.719Z,99728.50
2022-08-09T20:13:06.192Z,99725.69
2022-08-09T20:16:33.264Z,99730.47
2022-08-09T20:18:22.333Z,99728.97
2022-08-09T20:20:51.038Z,99732.53
2022-08-09T20:23:23.614Z,99736.13
2022-08-09T20:25:53.312Z,99736.34
2022-08-09T20:28:34.146Z,99734.19
2022-08-09T20:31:04.871Z,99735.69
2022-08-09T20:33:39.048Z,99739.56
2022-08-09T20:36:11.683Z,99736.13
2022-08-09T20:41:35.156Z,99739.28
2022-08-09T20:44:06.945Z,99738.69
2022-08-09T20:46:43.210Z,99744.59
2022-08-09T20:49:16.059Z,99732.44
2022-08-09T20:51:44.962Z,99742.19
2022-08-09T20:54:18.143Z,99741.81
2022-08-09T20:56:46.920Z,99734.19
2022-08-09T20:59:16.717Z,99737.56
2022-08-09T21:01:50.315Z,99740.22
2022-08-09T21:05:52.668Z,99741.66
2022-08-09T21:07:11.597Z,99740.16
2022-08-09T21:09:45.602Z,99745.66
2022-08-09T21:14:48.412Z,99745.34
2022-08-09T21:18:22.214Z,99744.00
2022-08-09T21:20:18.157Z,99737.84
2022-08-09T21:22:52.626Z,99742.53
2022-08-09T21:25:44.363Z,99750.41
2022-08-09T21:28:35.075Z,99747.41
2022-08-09T21:31:18.055Z,99744.00
2022-08-09T21:33:53.138Z,99743.31
2022-08-09T21:36:28.892Z,99752.47
2022-08-09T21:38:59.436Z,99750.78
2022-08-09T21:42:06.059Z,99747.63
2022-08-09T21:44:33.992Z,99752.78
2022-08-09T21:47:08.906Z,99749.09
2022-08-09T21:49:43.095Z,99749.16
2022-08-09T21:52:20.312Z,99750.44
2022-08-09T21:54:59.554Z,99747.94
2022-08-09T21:57:38.153Z,99749.75
2022-08-09T22:00:35.852Z,99750.06
2022-08-09T22:03:06.473Z,99760.38
2022-08-09T22:05:41.970Z,99757.19
2022-08-09T22:08:14.588Z,99755.69
2022-08-09T22:11:50.167Z,99757.59
2022-08-09T22:13:33.973Z,99755.06
2022-08-09T22:16:01.045Z,99764.59
2022-08-09T22:18:32.972Z,99759.19
2022-08-09T22:21:00.918Z,99760.84
2022-08-09T22:23:35.631Z,99756.22
2022-08-09T22:26:23.542Z,99765.38
2022-08-09T22:29:07.189Z,99768.06
2022-08-09T22:31:36.179Z,99766.91
2022-08-09T22:34:03.321Z,99761.50
2022-08-09T22:36:45.532Z,99763.75
2022-08-09T22:39:47.110Z,99763.94
2022-08-09T22:42:16.259Z,99760.03
2022-08-09T22:44:49.843Z,99757.88
2022-08-09T22:48:15.665Z,99762.25
2022-08-09T22:50:15.894Z,99757.94
2022-08-09T22:52:43.131Z,99760.84
2022-08-09T22:55:11.415Z,99757.94
2022-08-09T22:57:59.593Z,99762.66
2022-08-09T23:00:29.610Z,99764.16
2022-08-09T23:02:56.539Z,99771.66
2022-08-09T23:05:25.409Z,99761.78
2022-08-09T23:08:29.111Z,99771.84
2022-08-09T23:10:57.082Z,99767.09
2022-08-09T23:13:23.877Z,99768.03
2022-08-09T23:16:02.457Z,99768.03
2022-08-09T23:18:30.726Z,99772.22
2022-08-09T23:20:57.418Z,99769.00
2022-08-09T23:23:24.050Z,99768.47
2022-08-09T23:25:50.706Z,99768.00
2022-08-09T23:28:17.437Z,99768.44
2022-08-09T23:30:51.417Z,99763.31
2022-08-09T23:33:21.119Z,99757.38
2022-08-09T23:36:05.610Z,99762.22
2022-08-09T23:38:35.863Z,99763.69
2022-08-09T23:41:28.912Z,99763.84
2022-08-09T23:44:01.347Z,99763.28
2022-08-09T23:46:29.877Z,99758.38
2022-08-09T23:48:57.905Z,99763.88
2022-08-09T23:51:25.120Z,99755.44
2022-08-09T23:53:52.566Z,99752.44
2022-08-09T23:56:53.435Z,99757.75
2022-08-09T23:59:09.583Z,99756.22
